createdAt,value
2018-09-15T00:00:21.614Z,101396.93
2018-09-15T00:02:49.665Z,101401.06
2018-09-15T00:05:17.064Z,101399.64
2018-09-15T00:07:44.260Z,101401.61
2018-09-15T00:10:11.614Z,101395.75
2018-09-15T00:12:38.858Z,101395.41
2018-09-15T00:15:06.579Z,101399.33
2018-09-15T00:17:33.854Z,101401.53
2018-09-15T00:20:01.153Z,101404.91
2018-09-15T00:22:28.408Z,101395.67
2018-09-15T00:24:55.651Z,101394.17
2018-09-15T00:27:22.899Z,101389.18
2018-09-15T00:29:50.238Z,101388.98
2018-09-15T00:32:17.427Z,101389.27
2018-09-15T00:34:44.682Z,101386.73
2018-09-15T00:37:11.925Z,101379.47
2018-09-15T00:39:39.120Z,101384.48
2018-09-15T00:42:06.386Z,101386.80
2018-09-15T00:44:33.599Z,101376.53
2018-09-15T00:47:00.772Z,101374.97
2018-09-15T00:49:28.010Z,101371.06
2018-09-15T00:51:55.205Z,101372.08
2018-09-15T00:54:22.487Z,101375.79
2018-09-15T00:56:49.653Z,101371.55
2018-09-15T00:59:16.834Z,101376.48
2018-09-15T01:01:44.066Z,101372.22
2018-09-15T01:04:11.256Z,101366.63
2018-09-15T01:06:38.464Z,101370.17
2018-09-15T01:09:07.479Z,101367.50
2018-09-15T01:11:34.707Z,101371.14
2018-09-15T01:14:02.190Z,101366.84
2018-09-15T01:16:29.355Z,101362.52
2018-09-15T01:18:56.630Z,101356.42
2018-09-15T01:21:23.809Z,101352.38
2018-09-15T01:23:51.033Z,101354.69
2018-09-15T01:26:19.104Z,101353.44
2018-09-15T01:28:49.755Z,101355.68
2018-09-15T01:31:17.153Z,101359.19
2018-09-15T01:33:44.360Z,101359.88
2018-09-15T01:36:11.566Z,101363.05
2018-09-15T01:38:38.908Z,101356.11
2018-09-15T01:41:06.109Z,101360.56
2018-09-15T01:43:33.316Z,101362.78
2018-09-15T01:46:00.599Z,101351.34
2018-09-15T01:48:27.782Z,101357.53
2018-09-15T01:50:54.965Z,101360.59
2018-09-15T01:53:22.193Z,101367.79
2018-09-15T01:55:49.369Z,101374.33
2018-09-15T01:58:16.541Z,101370.52
2018-09-15T02:00:43.879Z,101370.22
2018-09-15T02:03:11.065Z,101371.73
2018-09-15T02:05:38.339Z,101372.11
2018-09-15T02:08:05.861Z,101374.88
2018-09-15T02:10:33.049Z,101375.77
2018-09-15T02:13:00.234Z,101381.81
2018-09-15T02:15:27.474Z,101382.66
2018-09-15T02:17:54.662Z,101389.30
2018-09-15T02:20:21.859Z,101376.66
2018-09-15T02:22:49.141Z,101388.44
2018-09-15T02:25:16.320Z,101387.97
2018-09-15T02:27:43.487Z,101385.92
2018-09-15T02:30:10.718Z,101386.52
2018-09-15T02:32:37.944Z,101392.33
2018-09-15T02:35:05.178Z,101383.22
2018-09-15T02:37:32.436Z,101386.36
2018-09-15T02:39:59.687Z,101380.78
2018-09-15T02:42:26.875Z,101382.20
2018-09-15T02:44:54.132Z,101380.08
2018-09-15T02:47:21.308Z,101385.44
2018-09-15T02:49:48.527Z,101384.19
2018-09-15T02:52:15.775Z,101392.60
2018-09-15T02:54:42.988Z,101386.94
2018-09-15T02:57:10.149Z,101386.63
2018-09-15T02:59:37.386Z,101387.52
2018-09-15T03:02:04.562Z,101389.78
2018-09-15T03:04:31.742Z,101388.52
2018-09-15T03:06:58.968Z,101385.09
2018-09-15T03:09:26.147Z,101385.14
2018-09-15T03:11:53.328Z,101390.40
2018-09-15T03:14:20.542Z,101388.31
2018-09-15T03:16:47.749Z,101388.77
2018-09-15T03:19:14.958Z,101388.84
2018-09-15T03:21:42.222Z,101387.59
2018-09-15T03:24:09.383Z,101388.45
2018-09-15T03:26:36.610Z,101396.77
2018-09-15T03:29:03.890Z,101390.62
2018-09-15T03:31:31.062Z,101399.43
2018-09-15T03:33:58.249Z,101400.83
2018-09-15T03:36:25.546Z,101399.09
2018-09-15T03:38:52.709Z,101399.64
2018-09-15T03:41:19.991Z,101401.48
2018-09-15T03:43:47.213Z,101397.55
2018-09-15T03:46:14.470Z,101397.53
2018-09-15T03:48:41.628Z,101402.80
2018-09-15T03:51:08.861Z,101399.76
2018-09-15T03:53:36.053Z,101404.99
2018-09-15T03:56:03.245Z,101409.83
2018-09-15T03:58:30.473Z,101416.87
2018-09-15T04:00:57.668Z,101412.14
2018-09-15T04:03:24.972Z,101416.08
2018-09-15T04:05:52.241Z,101415.72
2018-09-15T04:08:20.180Z,101415.30
2018-09-15T04:10:47.397Z,101425.39
2018-09-15T04:13:14.623Z,101416.19
2018-09-15T04:15:41.939Z,101418.38
2018-09-15T04:18:12.970Z,101421.86
2018-09-15T04:20:40.260Z,101426.69
2018-09-15T04:23:07.623Z,101416.59
2018-09-15T04:25:34.798Z,101424.28
2018-09-15T04:28:02.032Z,101432.22
2018-09-15T04:30:29.231Z,101432.73
2018-09-15T04:32:56.400Z,101436.48
2018-09-15T04:35:23.642Z,101439.05
2018-09-15T04:37:50.825Z,101446.32
2018-09-15T04:40:17.998Z,101442.24
2018-09-15T04:42:45.266Z,101439.34
2018-09-15T04:45:12.437Z,101444.17
2018-09-15T04:47:39.706Z,101445.02
2018-09-15T04:50:06.981Z,101447.67
2018-09-15T04:52:34.204Z,101452.98
2018-09-15T04:55:01.421Z,101457.88
2018-09-15T04:57:29.348Z,101456.99
2018-09-15T05:00:03.289Z,101456.92
2018-09-15T05:02:30.522Z,101471.02
2018-09-15T05:04:57.752Z,101465.36
2018-09-15T05:07:24.965Z,101462.39
2018-09-15T05:09:52.219Z,101471.61
2018-09-15T05:12:19.675Z,101476.48
2018-09-15T05:14:46.853Z,101475.62
2018-09-15T05:17:14.109Z,101479.65
2018-09-15T05:19:41.301Z,101481.84
2018-09-15T05:22:08.646Z,101488.41
2018-09-15T05:24:35.871Z,101492.81
2018-09-15T05:27:03.098Z,101493.24
2018-09-15T05:29:30.282Z,101492.80
2018-09-15T05:31:57.540Z,101493.59
2018-09-15T05:34:24.772Z,101483.89
2018-09-15T05:36:52.142Z,101471.92
2018-09-15T05:39:19.355Z,101474.02
2018-09-15T05:41:46.534Z,101480.48
2018-09-15T05:44:13.795Z,101486.90
2018-09-15T05:46:41.010Z,101491.14
2018-09-15T05:49:08.335Z,101502.84
2018-09-15T05:51:35.735Z,101511.83
2018-09-15T05:54:03.045Z,101508.08
2018-09-15T05:56:30.264Z,101514.53
2018-09-15T05:58:57.714Z,101522.34
2018-09-15T06:01:25.630Z,101523.41
2018-09-15T06:03:52.878Z,101530.76
2018-09-15T06:06:20.289Z,101530.14
2018-09-15T06:08:47.609Z,101526.29
2018-09-15T06:11:14.906Z,101532.19
2018-09-15T06:13:43.978Z,101537.86
2018-09-15T06:16:11.588Z,101541.95
2018-09-15T06:18:38.795Z,101551.92
2018-09-15T06:21:06.233Z,101552.64
2018-09-15T06:23:33.451Z,101550.98
2018-09-15T06:26:00.957Z,101560.94
2018-09-15T06:28:28.339Z,101564.14
2018-09-15T06:30:55.597Z,101565.26
2018-09-15T06:33:22.771Z,101561.05
2018-09-15T06:38:46.646Z,101565.63
2018-09-15T06:41:13.828Z,101561.31
2018-09-15T06:43:41.021Z,101561.12
2018-09-15T06:46:08.306Z,101566.77
2018-09-15T06:48:35.543Z,101564.02
2018-09-15T06:51:02.811Z,101569.84
2018-09-15T06:53:30.176Z,101572.92
2018-09-15T06:55:57.424Z,101571.59
2018-09-15T06:58:24.591Z,101578.22
2018-09-15T07:00:51.799Z,101578.76
2018-09-15T07:03:19.023Z,101579.57
2018-09-15T07:05:46.256Z,101587.30
2018-09-15T07:08:13.499Z,101585.17
2018-09-15T07:10:40.701Z,101582.68
2018-09-15T07:13:07.935Z,101587.41
2018-09-15T07:15:35.130Z,101591.46
2018-09-15T07:18:02.390Z,101593.14
2018-09-15T07:20:29.650Z,101590.58
2018-09-15T07:22:56.946Z,101585.25
2018-09-15T07:25:24.119Z,101597.59
2018-09-15T07:27:51.491Z,101599.03
2018-09-15T07:30:18.914Z,101596.77
2018-09-15T07:32:46.119Z,101596.52
2018-09-15T07:35:13.296Z,101591.97
2018-09-15T07:37:40.523Z,101590.09
2018-09-15T07:40:07.716Z,101591.65
2018-09-15T07:42:34.863Z,101598.09
2018-09-15T07:45:02.194Z,101598.30
2018-09-15T07:47:29.465Z,101596.73
2018-09-15T07:49:56.624Z,101599.52
2018-09-15T07:52:24.258Z,101604.66
2018-09-15T07:54:51.458Z,101602.73
2018-09-15T07:57:18.708Z,101612.98
2018-09-15T07:59:45.925Z,101607.17
2018-09-15T08:02:20.146Z,101624.33
2018-09-15T08:04:48.082Z,101620.68
2018-09-15T08:07:16.277Z,101625.23
2018-09-15T08:09:44.727Z,101629.12
2018-09-15T08:12:13.424Z,101628.30
2018-09-15T08:14:40.726Z,101631.27
2018-09-15T08:17:08.011Z,101630.23
2018-09-15T08:19:35.266Z,101638.38
2018-09-15T08:22:02.417Z,101630.56
2018-09-15T08:24:29.661Z,101630.45
2018-09-15T08:26:56.905Z,101644.91
2018-09-15T08:29:24.077Z,101640.98
2018-09-15T08:31:51.341Z,101640.14
2018-09-15T08:34:19.831Z,101649.84
2018-09-15T08:36:48.103Z,101648.00
2018-09-15T08:39:15.265Z,101643.67
2018-09-15T08:41:42.513Z,101658.77
2018-09-15T08:44:09.749Z,101661.23
2018-09-15T08:46:36.910Z,101655.61
2018-09-15T08:49:04.369Z,101657.28
2018-09-15T08:51:31.530Z,101654.14
2018-09-15T08:53:58.769Z,101658.02
2018-09-15T08:56:25.942Z,101655.77
2018-09-15T08:58:53.188Z,101653.84
2018-09-15T09:01:20.383Z,101652.58
2018-09-15T09:03:47.875Z,101657.72
2018-09-15T09:06:14.983Z,101658.77
2018-09-15T09:08:42.117Z,101654.50
2018-09-15T09:11:09.333Z,101650.47
2018-09-15T09:13:36.506Z,101645.52
2018-09-15T09:16:03.689Z,101653.77
2018-09-15T09:18:30.898Z,101653.20
2018-09-15T09:20:58.109Z,101651.81
2018-09-15T09:23:25.259Z,101660.70
2018-09-15T09:25:52.489Z,101654.56
2018-09-15T09:28:19.662Z,101660.44
2018-09-15T09:30:46.830Z,101648.48
2018-09-15T09:33:14.036Z,101651.82
2018-09-15T09:35:41.258Z,101659.62
2018-09-15T09:38:08.455Z,101652.44
2018-09-15T09:40:35.693Z,101648.46
2018-09-15T09:43:02.989Z,101644.04
2018-09-15T09:45:30.191Z,101651.52
2018-09-15T09:47:57.433Z,101649.47
2018-09-15T09:50:24.625Z,101640.14
2018-09-15T09:52:51.827Z,101653.20
2018-09-15T09:55:19.040Z,101653.97
2018-09-15T09:57:46.246Z,101649.77
2018-09-15T10:00:19.079Z,101666.27
2018-09-15T10:02:46.277Z,101662.23
2018-09-15T10:05:13.434Z,101662.98
2018-09-15T10:07:40.609Z,101664.52
2018-09-15T10:10:07.979Z,101661.08
2018-09-15T10:12:35.205Z,101649.00
2018-09-15T10:15:02.401Z,101662.55
2018-09-15T10:17:29.625Z,101673.39
2018-09-15T10:19:56.802Z,101665.34
2018-09-15T10:22:24.005Z,101664.56
2018-09-15T10:24:51.286Z,101660.45
2018-09-15T10:27:18.501Z,101659.16
2018-09-15T10:29:45.673Z,101664.86
2018-09-15T10:32:12.949Z,101657.89
2018-09-15T10:34:40.125Z,101663.09
2018-09-15T10:37:07.334Z,101658.79
2018-09-15T10:39:34.539Z,101648.28
2018-09-15T10:42:01.756Z,101665.08
2018-09-15T10:44:28.952Z,101658.58
2018-09-15T10:46:56.220Z,101658.40
2018-09-15T10:49:23.417Z,101658.54
2018-09-15T10:51:50.685Z,101658.38
2018-09-15T10:54:17.906Z,101656.23
2018-09-15T10:56:45.088Z,101660.02
2018-09-15T10:59:12.290Z,101656.25
2018-09-15T11:01:39.518Z,101658.25
2018-09-15T11:04:06.750Z,101665.65
2018-09-15T11:06:33.922Z,101671.48
2018-09-15T11:09:01.174Z,101668.80
2018-09-15T11:11:28.462Z,101668.23
2018-09-15T11:13:55.650Z,101660.45
2018-09-15T11:16:22.919Z,101660.98
2018-09-15T11:18:50.129Z,101657.03
2018-09-15T11:21:18.130Z,101644.02
2018-09-15T11:23:45.330Z,101649.19
2018-09-15T11:26:12.541Z,101645.55
2018-09-15T11:28:39.766Z,101648.33
2018-09-15T11:31:07.003Z,101652.92
2018-09-15T11:33:34.181Z,101649.94
2018-09-15T11:36:01.378Z,101649.58
2018-09-15T11:38:28.711Z,101644.56
2018-09-15T11:40:55.881Z,101653.95
2018-09-15T11:43:23.040Z,101645.16
2018-09-15T11:45:50.265Z,101639.52
2018-09-15T11:48:17.442Z,101643.00
2018-09-15T11:50:44.649Z,101648.68
2018-09-15T11:53:12.196Z,101647.83
2018-09-15T11:55:39.441Z,101639.34
2018-09-15T11:58:06.617Z,101636.75
2018-09-15T12:00:35.797Z,101654.83
2018-09-15T12:03:03.043Z,101657.86
2018-09-15T12:05:30.235Z,101649.69
2018-09-15T12:07:57.498Z,101648.55
2018-09-15T12:10:24.646Z,101651.38
2018-09-15T12:12:51.847Z,101651.70
2018-09-15T12:15:19.381Z,101647.52
2018-09-15T12:17:46.731Z,101648.26
2018-09-15T12:20:13.922Z,101651.97
2018-09-15T12:22:41.137Z,101651.44
2018-09-15T12:25:08.402Z,101651.88
2018-09-15T12:27:35.556Z,101650.38
2018-09-15T12:30:02.860Z,101653.03
2018-09-15T12:32:30.280Z,101650.80
2018-09-15T12:34:57.442Z,101661.94
2018-09-15T12:37:24.678Z,101659.54
2018-09-15T12:39:52.394Z,101658.28
2018-09-15T12:42:19.565Z,101659.39
2018-09-15T12:44:46.816Z,101665.56
2018-09-15T12:47:13.988Z,101664.41
2018-09-15T12:49:41.186Z,101658.22
2018-09-15T12:52:08.394Z,101658.64
2018-09-15T12:54:35.704Z,101660.17
2018-09-15T12:57:02.994Z,101648.33
2018-09-15T12:59:30.456Z,101650.15
2018-09-15T13:01:57.662Z,101658.59
2018-09-15T13:04:24.847Z,101662.33
2018-09-15T13:06:52.089Z,101664.09
2018-09-15T13:09:19.397Z,101664.01
2018-09-15T13:11:47.194Z,101666.12
2018-09-15T13:14:14.435Z,101659.77
2018-09-15T13:16:41.645Z,101663.23
2018-09-15T13:19:08.850Z,101669.16
2018-09-15T13:21:36.087Z,101671.59
2018-09-15T13:24:03.291Z,101676.09
2018-09-15T13:26:30.465Z,101663.78
2018-09-15T13:28:57.762Z,101662.34
2018-09-15T13:31:25.008Z,101671.64
2018-09-15T13:33:52.330Z,101669.34
2018-09-15T13:36:19.580Z,101668.16
2018-09-15T13:38:46.779Z,101671.52
2018-09-15T13:41:13.955Z,101672.23
2018-09-15T13:43:41.194Z,101668.86
2018-09-15T13:46:08.385Z,101660.99
2018-09-15T13:48:35.758Z,101668.08
2018-09-15T13:51:03.094Z,101666.27
2018-09-15T13:53:30.279Z,101672.08
2018-09-15T13:55:57.543Z,101671.06
2018-09-15T13:58:24.785Z,101670.70
2018-09-15T14:00:51.997Z,101671.13
2018-09-15T14:03:19.179Z,101673.48
2018-09-15T14:05:46.409Z,101673.36
2018-09-15T14:08:13.606Z,101668.39
2018-09-15T14:10:40.804Z,101669.58
2018-09-15T14:13:08.063Z,101670.78
2018-09-15T14:15:35.347Z,101673.23
2018-09-15T14:18:02.539Z,101666.66
2018-09-15T14:20:29.800Z,101665.45
2018-09-15T14:22:56.978Z,101659.22
2018-09-15T14:25:24.158Z,101661.03
2018-09-15T14:27:51.430Z,101657.88
2018-09-15T14:30:18.603Z,101656.34
2018-09-15T14:32:45.794Z,101656.59
2018-09-15T14:35:13.027Z,101668.98
2018-09-15T14:37:40.225Z,101674.46
2018-09-15T14:40:07.409Z,101658.78
2018-09-15T14:42:34.634Z,101664.02
2018-09-15T14:45:01.798Z,101667.56
2018-09-15T14:47:29.046Z,101672.47
2018-09-15T14:49:56.374Z,101670.00
2018-09-15T14:52:23.531Z,101672.04
2018-09-15T14:54:50.728Z,101667.72
2018-09-15T14:57:17.949Z,101667.15
2018-09-15T14:59:45.213Z,101662.66
2018-09-15T15:02:12.388Z,101669.53
2018-09-15T15:04:39.585Z,101667.22
2018-09-15T15:07:06.838Z,101676.03
2018-09-15T15:09:34.841Z,101670.85
2018-09-15T15:12:02.037Z,101677.82
2018-09-15T15:14:29.279Z,101681.44
2018-09-15T15:16:56.441Z,101677.59
2018-09-15T15:19:23.602Z,101689.55
2018-09-15T15:21:50.873Z,101688.81
2018-09-15T15:24:18.110Z,101689.81
2018-09-15T15:26:45.298Z,101698.19
2018-09-15T15:29:12.571Z,101693.07
2018-09-15T15:31:39.766Z,101706.06
2018-09-15T15:34:06.991Z,101702.19
2018-09-15T15:36:34.213Z,101706.11
2018-09-15T15:39:01.509Z,101702.84
2018-09-15T15:41:28.703Z,101695.74
2018-09-15T15:43:56.394Z,101697.78
2018-09-15T15:46:23.582Z,101691.37
2018-09-15T15:48:50.741Z,101695.58
2018-09-15T15:51:18.081Z,101696.67
2018-09-15T15:53:45.233Z,101692.42
2018-09-15T15:56:12.429Z,101694.00
2018-09-15T15:58:39.759Z,101694.50
2018-09-15T16:01:06.948Z,101693.37
2018-09-15T16:03:34.810Z,101704.97
2018-09-15T16:06:02.106Z,101700.26
2018-09-15T16:08:29.292Z,101704.50
2018-09-15T16:10:56.492Z,101705.09
2018-09-15T16:13:23.725Z,101707.33
2018-09-15T16:15:50.942Z,101717.55
2018-09-15T16:18:18.165Z,101720.33
2018-09-15T16:20:45.420Z,101716.03
2018-09-15T16:23:12.700Z,101716.97
2018-09-15T16:25:39.945Z,101715.00
2018-09-15T16:28:07.175Z,101712.33
2018-09-15T16:30:34.497Z,101726.61
2018-09-15T16:33:01.679Z,101725.69
2018-09-15T16:35:29.027Z,101722.25
2018-09-15T16:37:56.273Z,101722.63
2018-09-15T16:40:23.502Z,101719.42
2018-09-15T16:42:50.758Z,101721.53
2018-09-15T16:45:18.017Z,101725.00
2018-09-15T16:47:45.210Z,101724.36
2018-09-15T16:50:12.474Z,101723.48
2018-09-15T16:52:39.805Z,101730.00
2018-09-15T16:55:07.073Z,101731.44
2018-09-15T16:57:34.336Z,101733.41
2018-09-15T17:00:01.502Z,101738.33
2018-09-15T17:02:28.701Z,101735.66
2018-09-15T17:04:56.969Z,101741.39
2018-09-15T17:07:24.181Z,101743.53
2018-09-15T17:09:51.396Z,101741.09
2018-09-15T17:12:18.663Z,101738.26
2018-09-15T17:14:45.902Z,101735.78
2018-09-15T17:17:13.066Z,101727.81
2018-09-15T17:19:40.348Z,101730.83
2018-09-15T17:22:07.521Z,101726.34
2018-09-15T17:24:34.745Z,101734.44
2018-09-15T17:27:01.962Z,101743.59
2018-09-15T17:29:29.135Z,101750.92
2018-09-15T17:31:56.364Z,101749.34
2018-09-15T17:34:23.650Z,101749.94
2018-09-15T17:36:50.840Z,101761.07
2018-09-15T17:39:18.025Z,101761.58
2018-09-15T17:41:45.254Z,101766.19
2018-09-15T17:44:12.435Z,101775.52
2018-09-15T17:46:39.611Z,101775.84
2018-09-15T17:49:06.841Z,101774.89
2018-09-15T17:51:34.032Z,101777.06
2018-09-15T17:54:01.211Z,101786.33
2018-09-15T17:56:28.465Z,101789.12
2018-09-15T17:58:55.680Z,101784.44
2018-09-15T18:01:22.837Z,101790.61
2018-09-15T18:03:50.093Z,101786.11
2018-09-15T18:06:17.281Z,101789.84
2018-09-15T18:08:44.565Z,101787.55
2018-09-15T18:11:11.797Z,101802.87
2018-09-15T18:13:39.015Z,101802.80
2018-09-15T18:16:06.374Z,101799.37
2018-09-15T18:18:33.616Z,101810.72
2018-09-15T18:21:00.774Z,101811.22
2018-09-15T18:23:27.964Z,101811.59
2018-09-15T18:25:55.365Z,101812.27
2018-09-15T18:28:22.526Z,101818.46
2018-09-15T18:30:49.712Z,101815.84
2018-09-15T18:33:17.198Z,101817.55
2018-09-15T18:35:44.466Z,101819.42
2018-09-15T18:38:11.644Z,101818.50
2018-09-15T18:40:38.878Z,101816.28
2018-09-15T18:43:06.096Z,101812.28
2018-09-15T18:45:33.280Z,101821.47
2018-09-15T18:48:00.544Z,101820.03
2018-09-15T18:50:27.820Z,101824.93
2018-09-15T18:52:55.093Z,101834.72
2018-09-15T18:55:22.308Z,101838.83
2018-09-15T18:57:49.484Z,101847.73
2018-09-15T19:00:16.730Z,101850.30
2018-09-15T19:02:43.892Z,101856.03
2018-09-15T19:05:11.052Z,101866.34
2018-09-15T19:07:38.359Z,101864.64
2018-09-15T19:10:05.661Z,101861.06
2018-09-15T19:12:32.880Z,101866.12
2018-09-15T19:15:00.041Z,101867.66
2018-09-15T19:17:27.247Z,101883.45
2018-09-15T19:19:54.429Z,101881.84
2018-09-15T19:22:21.672Z,101880.96
2018-09-15T19:24:48.911Z,101884.03
2018-09-15T19:27:16.121Z,101887.36
2018-09-15T19:29:43.286Z,101897.13
2018-09-15T19:32:10.524Z,101894.50
2018-09-15T19:34:37.773Z,101892.97
2018-09-15T19:37:04.994Z,101890.14
2018-09-15T19:39:32.219Z,101892.89
2018-09-15T19:41:59.429Z,101900.83
2018-09-15T19:44:26.637Z,101903.60
2018-09-15T19:46:53.826Z,101901.36
2018-09-15T19:49:21.030Z,101912.16
2018-09-15T19:51:48.198Z,101916.94
2018-09-15T19:54:15.421Z,101911.20
2018-09-15T19:56:42.641Z,101914.94
2018-09-15T19:59:10.042Z,101914.91
2018-09-15T20:01:37.279Z,101923.62
2018-09-15T20:04:04.511Z,101924.13
2018-09-15T20:06:31.701Z,101930.88
2018-09-15T20:08:59.011Z,101931.84
2018-09-15T20:11:26.233Z,101929.85
2018-09-15T20:13:53.430Z,101931.50
2018-09-15T20:16:19.729Z,101932.30
2018-09-15T20:18:45.983Z,101931.09
2018-09-15T20:21:12.188Z,101927.19
2018-09-15T20:23:39.378Z,101925.52
2018-09-15T20:26:06.654Z,101918.42
2018-09-15T20:28:33.908Z,101924.38
2018-09-15T20:31:01.166Z,101919.14
2018-09-15T20:33:28.314Z,101925.27
2018-09-15T20:35:55.477Z,101920.67
2018-09-15T20:38:22.730Z,101922.41
2018-09-15T20:40:49.998Z,101924.94
2018-09-15T20:43:17.148Z,101922.03
2018-09-15T20:45:44.386Z,101921.09
2018-09-15T20:48:11.547Z,101923.92
2018-09-15T20:50:38.752Z,101926.66
2018-09-15T20:53:05.986Z,101918.67
2018-09-15T20:55:33.261Z,101924.63
2018-09-15T20:58:00.431Z,101925.08
2018-09-15T21:00:27.621Z,101924.20
2018-09-15T21:02:54.776Z,101926.02
2018-09-15T21:05:21.923Z,101932.36
2018-09-15T21:07:49.192Z,101926.25
2018-09-15T21:10:16.385Z,101925.83
2018-09-15T21:12:43.621Z,101917.50
2018-09-15T21:15:10.836Z,101927.88
2018-09-15T21:17:37.994Z,101929.95
2018-09-15T21:20:05.305Z,101928.98
2018-09-15T21:22:32.536Z,101933.66
2018-09-15T21:24:59.711Z,101931.37
2018-09-15T21:27:26.894Z,101935.62
2018-09-15T21:29:54.188Z,101935.39
2018-09-15T21:32:21.361Z,101940.23
2018-09-15T21:34:48.496Z,101949.36
2018-09-15T21:37:15.741Z,101949.20
2018-09-15T21:39:42.913Z,101949.88
2018-09-15T21:42:10.082Z,101952.27
2018-09-15T21:44:37.395Z,101955.55
2018-09-15T21:47:04.773Z,101959.67
2018-09-15T21:49:31.948Z,101962.45
2018-09-15T21:51:59.316Z,101973.16
2018-09-15T21:54:26.468Z,101973.31
2018-09-15T21:56:53.633Z,101982.25
2018-09-15T21:59:20.865Z,101978.83
2018-09-15T22:01:48.048Z,101981.11
2018-09-15T22:04:21.653Z,101978.95
2018-09-15T22:06:50.074Z,101979.06
2018-09-15T22:09:17.324Z,101980.55
2018-09-15T22:11:44.726Z,101985.95
2018-09-15T22:14:11.978Z,101985.98
2018-09-15T22:16:39.253Z,101983.42
2018-09-15T22:19:06.693Z,101991.81
2018-09-15T22:21:33.876Z,101994.03
2018-09-15T22:24:01.116Z,101994.09
2018-09-15T22:26:28.438Z,101996.78
2018-09-15T22:28:55.633Z,101992.83
2018-09-15T22:31:22.850Z,101991.16
2018-09-15T22:33:50.040Z,101997.37
2018-09-15T22:36:17.210Z,101993.02
2018-09-15T22:38:44.452Z,101991.34
2018-09-15T22:41:11.756Z,101992.23
2018-09-15T22:43:39.419Z,101987.88
2018-09-15T22:46:06.684Z,101992.37
2018-09-15T22:48:33.909Z,101995.04
2018-09-15T22:51:01.080Z,102006.03
2018-09-15T22:53:28.246Z,102004.33
2018-09-15T22:55:55.469Z,101998.63
2018-09-15T22:58:22.627Z,101996.06
2018-09-15T23:00:49.789Z,101996.52
2018-09-15T23:03:17.061Z,101995.22
2018-09-15T23:05:44.268Z,101995.27
2018-09-15T23:08:11.436Z,101999.66
2018-09-15T23:10:38.634Z,101995.33
2018-09-15T23:13:05.808Z,101997.97
2018-09-15T23:15:32.973Z,101999.74
2018-09-15T23:18:00.192Z,101998.45
2018-09-15T23:20:27.345Z,101999.78
2018-09-15T23:22:54.601Z,102003.36
2018-09-15T23:25:21.762Z,101999.84
2018-09-15T23:27:48.936Z,102002.97
2018-09-15T23:30:16.156Z,102003.47
2018-09-15T23:32:43.365Z,102005.23
2018-09-15T23:35:10.524Z,102004.80
2018-09-15T23:37:37.726Z,102009.19
2018-09-15T23:40:04.901Z,102007.88
2018-09-15T23:42:32.048Z,102006.13
2018-09-15T23:44:59.250Z,102007.88
2018-09-15T23:47:26.425Z,102011.83
2018-09-15T23:49:53.737Z,102009.19
2018-09-15T23:52:20.952Z,102009.67
2018-09-15T23:54:48.136Z,102009.19
2018-09-15T23:57:15.352Z,102005.67
2018-09-15T23:59:42.568Z,102007.00
